RJNH(METAR)
05/28 02:00
METAR RJNH 271700Z 06004KT 9999 FEW015 BKN180 BKN/// 20/17 Q1012 RMK
1CU015 6AC180 A2989=
戻る
トップページへ戻る
IMOC Co,.Ltd.